Abuja, Nigeria

12:56 PM WAT on July 30, 2014 (GMT +0100)
Nnamdi Azikiwe International (DNAA) Elev 1122 ft | 9.01 °N, 7.26 °E | Change Station

Current weather conditions updated 56 minutes ago

Mostly Cloudy
Mostly Cloudy
82 °F
Feels Like 86 °F
N
6
Wind Variable Wind from WSW

Today is forecast to be Warmer than yesterday. Showers and thunderstorms tonight.

Today
High -- | Low -- °F
--% Chance of Precip.
Yesterday
High -- | Low -- °F
Precip. -- in
6:22 AM 6:54 PM
Waxing Crescent, 11% visible
Pressure 30.01 in
Visibility 6.2 miles
Clouds Mostly Cloudy 1200 ft
Heat Index 86 °F
Dew Point 70 °F
Humidity 66%
Rainfall 0.00 in
Snow Depth Not available.
UV 9 out of 12
Pollen Not available.
Air Quality Not available.
Flu Activity Not available.
METAR DNAA 301100Z 24005KT 210V270 9999 BKN012 28/21 Q1016 NOSIG

More Conditions Fewer Conditions

Pressure 30.01 in
Visibility 6.2 miles
Clouds Mostly Cloudy 1200 ft
Heat Index 86 °F
Dew Point 70 °F
Humidity 66%
Rainfall 0.00 in
Snow Depth Not available.
UV 9 out of 12
Pollen Not available.
Air Quality Not available.
Flu Activity Not available.
METAR DNAA 301100Z 24005KT 210V270 9999 BKN012 28/21 Q1016 NOSIG

More Conditions Fewer Conditions

10-Day Weather Forecast

Almanac

Astronomy

Jul. 30, 2014 Rise Set
Actual Time 6:22 AM WAT 6:54 PM WAT
Civil Twilight 6:00 AM WAT 7:16 PM WAT
Nautical Twilight 5:34 AM WAT 7:42 PM WAT
Astronomical Twilight 5:07 AM WAT 8:08 PM WAT
Moon 8:54 AM WAT 9:18 PM WAT
Length of Visible Light 13h 16m
Length of Day
12h 32m
Tomorrow will be 0m 22s shorter.
Waxing Crescent, 11% of the Moon is Illuminated
Today
Waxing Crescent
Aug 3
First Quarter
Aug 10
Full
Aug 17
Last Quarter
Aug 25
New

Yesterday's Extremes

Country Highs Country Lows

Community

WunderPhotos

Upload Photos

1,739,043 photos uploaded!

Nearby

Snow Depth

Not available.

Earthquake Activity

City Distance Mag. Time & Date
No recent earthquake activity has been reported nearby.
Minimum magnitude displayed is 2.5.

Coastal Water Temperatures

Place Temperature
No Stations Reporting

Nearby Weather Stations

There are no personal weather stations in this area.